NORTHEAST SUFFOLK  -  Coastal Flood Statement Coastal Flood Statement     Rip Current Statement Rip Current Statement     Rip Current Statement Rip Current Statement        NORTHWEST SUFFOLK  -  Coastal Flood Statement Coastal Flood Statement     Rip Current Statement Rip Current Statement     Rip Current Statement Rip Current Statement        SOUTHEAST SUFFOLK  -  Coastal Flood Statement Coastal Flood Statement     Rip Current Statement Rip Current Statement     Rip Current Statement Rip Current Statement        SOUTHWEST SUFFOLK  -  Coastal Flood Statement Coastal Flood Statement     Rip Current Statement Rip Current Statement     Rip Current Statement Rip Current Statement        NORTHERN NASSAU  -  Rip Current Statement Rip Current Statement        NORTHERN QUEENS  -  Rip Current Statement Rip Current Statement        SOUTHERN NASSAU  -  Rip Current Statement Rip Current Statement        SOUTHERN QUEENS  -  Rip Current Statement Rip Current Statement      

Active alerts

Northwest Suffolk
  Details for Northwest Suffolk Coastal Flood Statement  +2 additional alerts
Southwest Suffolk
  Details for Southwest Suffolk Coastal Flood Statement  +2 additional alerts
Northeast Suffolk
  Details for Northeast Suffolk Coastal Flood Statement  +2 additional alerts
Southeast Suffolk
  Details for Southeast Suffolk Coastal Flood Statement  +2 additional alerts
Northern Queens
  Details for Northern Queens Rip Current Statement
Southern Queens
  Details for Southern Queens Rip Current Statement
Northern Nassau
  Details for Northern Nassau Rip Current Statement
Southern Nassau
  Details for Southern Nassau Rip Current Statement


WXM80 ListenWXM80 Stop

You find our weather info also at:

UK Metoffice

WeatherCloud

Weather Underground

Northeastern Weather Network

AWEKAS

Citizen Weather Observer Program (CWOP)

HAMweather, WeatherForYou, PWS Weather


Weather Underground History page Text

Daily Summary for February 25, 2018 Units:  Metric    English   Both
« Previous Day
Next Day »
Daily Weekly Monthly Yearly Custom
  High: Low: Average:
Temperature: 5.8 °C 3.8 °C 4.7 °C
Dew Point: 5.5 °C 3.4 °C 4.3 °C
Humidity: 98 % 94 % 97 %
Wind Speed: 20.1 km/h 0 km/h 8 km/h
Wind Gust: 31.5 km/h - -
Wind:- - East
Pressure: 1014.8 hPa 1004.3 hPa -
Precipitation: 14.73 mm    
Historical Graphs
 
 
Tabular Data for February 25, 2018
Time Temperature Dew Point Pressure Wind Wind Speed Wind Gust Humidity Rainfall Rate (Hourly)
00:00 5.3 °C 4.6 °C 1014.8 hPa ENE 0.5 km/h 3.2 km/h 95 % 0 mm
00:05 5.2 °C 4.5 °C 1014.8 hPa ENE 2.4 km/h 3.7 km/h 95 % 0 mm
00:10 5.2 °C 4.5 °C 1014.8 hPa ENE 2.3 km/h 4.8 km/h 95 % 0 mm
00:15 5.2 °C 4.5 °C 1014.4 hPa ENE 1.3 km/h 3.2 km/h 95 % 0 mm
00:20 5.2 °C 4.5 °C 1014.4 hPa ENE 2.1 km/h 3.7 km/h 95 % 0 mm
00:25 5.3 °C 4.6 °C 1014.4 hPa ENE 4.2 km/h 5.6 km/h 95 % 0 mm
00:30 5.3 °C 4.6 °C 1014.4 hPa ENE 3.5 km/h 5.6 km/h 95 % 0 mm
00:35 5.3 °C 4.6 °C 1014.4 hPa East 4.5 km/h 9.3 km/h 95 % 0 mm
00:40 5.2 °C 4.5 °C 1014.4 hPa ENE 2.3 km/h 3.7 km/h 95 % 0 mm
00:45 5.2 °C 4.5 °C 1014.4 hPa East 4.5 km/h 8 km/h 95 % 0 mm
00:50 5.2 °C 4.5 °C 1014.1 hPa East 4.5 km/h 5.6 km/h 95 % 0 mm
00:55 5.2 °C 4.5 °C 1014.1 hPa East 5.5 km/h 7.4 km/h 95 % 0 mm
01:00 5.2 °C 4.5 °C 1014.4 hPa East 6.1 km/h 7.4 km/h 95 % 0 mm
01:06 5.2 °C 4.5 °C 1014.1 hPa East 4.8 km/h 11.3 km/h 95 % 0 mm
01:11 5.2 °C 4.5 °C 1014.4 hPa East 3.2 km/h 8 km/h 95 % 0 mm
01:16 5.3 °C 4.6 °C 1014.1 hPa East 2.4 km/h 5.6 km/h 95 % 0 mm
01:21 5.3 °C 4.6 °C 1014.4 hPa East 3.2 km/h 4.8 km/h 95 % 0 mm
01:26 5.3 °C 4.6 °C 1014.1 hPa East 3.2 km/h 8 km/h 95 % 0 mm
01:31 5.3 °C 4.6 °C 1014.1 hPa East 1.6 km/h 8 km/h 95 % 0 mm
01:36 5.3 °C 4.6 °C 1014.1 hPa East 4.8 km/h 8 km/h 95 % 0 mm
01:41 5.3 °C 4.6 °C 1014.1 hPa East 3.2 km/h 8 km/h 95 % 0 mm
01:46 5.3 °C 4.6 °C 1014.4 hPa East 1.6 km/h 8 km/h 95 % 0 mm
01:51 5.3 °C 4.6 °C 1014.4 hPa East 1.6 km/h 4.8 km/h 95 % 0 mm
01:56 5.3 °C 4.6 °C 1014.1 hPa East 3.2 km/h 8 km/h 95 % 0 mm
02:01 5.3 °C 4.6 °C 1014.1 hPa East 3.4 km/h 5.6 km/h 95 % 0 mm
02:05 5.3 °C 4.6 °C 1013.8 hPa East 3.7 km/h 5.6 km/h 95 % 0 mm
02:11 5.3 °C 4.6 °C 1013.4 hPa ENE 4.8 km/h 6.4 km/h 95 % 0 mm
02:16 5.3 °C 4.6 °C 1013.1 hPa ENE 4.8 km/h 9.7 km/h 95 % 0 mm
02:21 5.3 °C 4.6 °C 1013.1 hPa ENE 8 km/h 11.3 km/h 95 % 0 mm
02:26 5.2 °C 4.5 °C 1013.4 hPa ENE 3.2 km/h 8 km/h 95 % 0 mm
02:31 5.2 °C 4.4 °C 1013.4 hPa ENE 4.8 km/h 11.3 km/h 95 % 0 mm
02:36 5.1 °C 4.2 °C 1013.1 hPa ENE 8.2 km/h 11.1 km/h 94 % 0 mm
02:41 5.1 °C 4.2 °C 1013.1 hPa ENE 8 km/h 9.7 km/h 94 % 0 mm
02:46 5 °C 4.1 °C 1013.8 hPa ENE 3.2 km/h 8 km/h 94 % 0 mm
02:51 5 °C 4.1 °C 1013.4 hPa ENE 3.2 km/h 6.4 km/h 94 % 0 mm
02:56 5 °C 4.1 °C 1013.4 hPa ENE 4.8 km/h 8 km/h 94 % 0 mm
03:01 4.9 °C 4.1 °C 1013.1 hPa ENE 6.8 km/h 7.4 km/h 94 % 0 mm
03:06 4.9 °C 4 °C 1013.1 hPa ENE 6.8 km/h 11.3 km/h 94 % 0 mm
03:11 4.8 °C 3.9 °C 1012.8 hPa NE 9 km/h 13 km/h 94 % 0 mm
03:16 4.8 °C 3.9 °C 1012.4 hPa East 9.8 km/h 16.7 km/h 94 % 0 mm
03:21 4.7 °C 4 °C 1012.8 hPa ENE 8.4 km/h 13 km/h 95 % 0 mm
03:26 4.7 °C 4 °C 1012.4 hPa East 9.7 km/h 14.8 km/h 95 % 0 mm
03:31 4.7 °C 3.9 °C 1012.4 hPa East 8 km/h 14.8 km/h 95 % 0 mm
03:36 4.6 °C 3.8 °C 1012.8 hPa East 8 km/h 11.1 km/h 95 % 0 mm
03:41 4.6 °C 3.8 °C 1012.4 hPa East 10.1 km/h 11.3 km/h 95 % 0 mm
03:46 4.4 °C 3.7 °C 1012.4 hPa East 9.3 km/h 14.8 km/h 95 % 0 mm
03:51 4.4 °C 3.7 °C 1012.4 hPa East 11.9 km/h 14.8 km/h 95 % 0 mm
03:57 4.4 °C 3.7 °C 1012.8 hPa East 9.8 km/h 14.8 km/h 95 % 0 mm
04:02 4.4 °C 3.9 °C 1012.8 hPa ENE 8.9 km/h 13 km/h 96 % 0 mm
04:07 4.4 °C 3.9 °C 1013.1 hPa ENE 8.7 km/h 13 km/h 96 % 0 mm
04:12 4.6 °C 4 °C 1013.1 hPa ENE 7.9 km/h 13 km/h 96 % 0 mm
04:17 4.6 °C 4 °C 1013.1 hPa East 10.8 km/h 16.7 km/h 96 % 0 mm
04:22 4.6 °C 4 °C 1012.8 hPa East 11.4 km/h 16.7 km/h 96 % 0 mm
04:27 4.6 °C 4.1 °C 1012.8 hPa East 10 km/h 22.2 km/h 96 % 0.25 mm
04:32 4.6 °C 4 °C 1013.4 hPa ENE 12.4 km/h 18.5 km/h 96 % 0.25 mm
04:37 4.6 °C 4 °C 1013.4 hPa ENE 12.6 km/h 16.7 km/h 96 % 0.51 mm
04:42 4.4 °C 3.9 °C 1013.1 hPa NE 15 km/h 22.2 km/h 96 % 0.76 mm
04:47 4.3 °C 3.8 °C 1013.4 hPa East 16.6 km/h 20.4 km/h 96 % 1.27 mm
04:52 4.3 °C 3.7 °C 1013.4 hPa East 13.2 km/h 16.7 km/h 96 % 1.52 mm
04:57 4.2 °C 3.7 °C 1012.8 hPa ENE 15.8 km/h 22.2 km/h 96 % 1.78 mm
05:02 4.2 °C 3.7 °C 1012.4 hPa East 14.8 km/h 18.5 km/h 96 % 2.29 mm
05:07 4.2 °C 3.6 °C 1012.4 hPa East 15.8 km/h 20.4 km/h 96 % 2.54 mm
05:12 4.2 °C 3.6 °C 1012.8 hPa East 15.4 km/h 20.4 km/h 96 % 2.79 mm
05:17 4.2 °C 3.6 °C 1012.4 hPa ENE 15.1 km/h 22.2 km/h 96 % 2.79 mm
05:22 4.2 °C 3.6 °C 1012.4 hPa ENE 17.4 km/h 22.2 km/h 96 % 3.05 mm
05:27 4.1 °C 3.6 °C 1012.4 hPa East 14.3 km/h 18.5 km/h 96 % 3.05 mm
05:32 4.1 °C 3.6 °C 1012.4 hPa ENE 15.8 km/h 20.9 km/h 96 % 3.05 mm
05:37 4.1 °C 3.6 °C 1012.4 hPa NE 15 km/h 18.5 km/h 96 % 3.05 mm
05:42 4.1 °C 3.5 °C 1012.4 hPa East 14.5 km/h 18.5 km/h 96 % 2.79 mm
05:48 4.1 °C 3.5 °C 1012.1 hPa East 17.4 km/h 22.2 km/h 96 % 2.54 mm
05:53 4.1 °C 3.5 °C 1011.7 hPa ENE 19.8 km/h 24.1 km/h 96 % 2.54 mm
05:58 4 °C 3.4 °C 1011.7 hPa East 17.4 km/h 22.2 km/h 96 % 2.54 mm
06:03 4 °C 3.4 °C 1011.4 hPa East 17.2 km/h 22.5 km/h 96 % 2.29 mm
06:08 4 °C 3.4 °C 1011.7 hPa East 19.6 km/h 27.8 km/h 96 % 2.03 mm
06:13 4.1 °C 3.6 °C 1012.1 hPa ENE 16.6 km/h 25.9 km/h 97 % 2.03 mm
06:18 4.1 °C 3.6 °C 1012.1 hPa East 15.1 km/h 20.4 km/h 97 % 2.03 mm
06:23 4.1 °C 3.7 °C 1011.1 hPa ENE 14.2 km/h 18.5 km/h 97 % 2.03 mm
06:28 4.2 °C 3.7 °C 1011.1 hPa ESE 17.5 km/h 22.2 km/h 97 % 2.03 mm
06:33 4.2 °C 3.7 °C 1011.7 hPa ENE 16.4 km/h 20.4 km/h 97 % 2.29 mm
06:38 4.2 °C 3.8 °C 1011.7 hPa East 15.1 km/h 20.4 km/h 97 % 2.29 mm
06:43 4.2 °C 3.8 °C 1011.4 hPa East 14.3 km/h 16.7 km/h 97 % 2.29 mm
06:48 4.2 °C 3.8 °C 1012.1 hPa East 10.6 km/h 14.8 km/h 97 % 2.29 mm
06:53 4.2 °C 3.8 °C 1011.7 hPa East 10.6 km/h 16.1 km/h 97 % 2.29 mm
06:58 4.2 °C 3.7 °C 1012.1 hPa ENE 10.6 km/h 14.8 km/h 97 % 2.29 mm
07:03 4.1 °C 3.7 °C 1012.4 hPa ENE 14.3 km/h 18.5 km/h 97 % 2.54 mm
07:08 4 °C 3.6 °C 1011.7 hPa East 18.2 km/h 24.1 km/h 97 % 2.54 mm
07:13 3.9 °C 3.5 °C 1012.1 hPa ENE 16.3 km/h 18.5 km/h 97 % 2.79 mm
07:19 3.9 °C 3.4 °C 1011.7 hPa East 18.7 km/h 25.9 km/h 97 % 3.3 mm
07:24 3.8 °C 3.4 °C 1011.7 hPa NE 16.4 km/h 24.1 km/h 97 % 3.05 mm
07:29 3.8 °C 3.4 °C 1011.7 hPa ENE 16.4 km/h 25.9 km/h 97 % 3.05 mm
07:34 3.9 °C 3.4 °C 1011.7 hPa ENE 16.1 km/h 24.1 km/h 97 % 3.05 mm
07:39 3.9 °C 3.4 °C 1011.7 hPa East 16.4 km/h 24.1 km/h 97 % 2.79 mm
07:44 3.9 °C 3.4 °C 1011.4 hPa East 17.1 km/h 18.5 km/h 97 % 2.79 mm
07:49 3.9 °C 3.4 °C 1011.4 hPa East 15.4 km/h 20.4 km/h 97 % 2.79 mm
07:54 3.9 °C 3.4 °C 1011.4 hPa East 15.8 km/h 20.4 km/h 97 % 2.79 mm
07:59 3.9 °C 3.5 °C 1011.4 hPa East 12.9 km/h 16.7 km/h 97 % 2.29 mm
08:04 3.9 °C 3.5 °C 1011.4 hPa ENE 11.1 km/h 14.8 km/h 97 % 2.03 mm
08:09 4 °C 3.6 °C 1011.4 hPa NE 9.5 km/h 11.1 km/h 97 % 1.78 mm
08:14 4.1 °C 3.6 °C 1011.1 hPa ENE 7.9 km/h 11.3 km/h 97 % 1.27 mm
08:19 4.1 °C 3.7 °C 1011.4 hPa ENE 9.3 km/h 14.5 km/h 97 % 1.02 mm
08:24 4.1 °C 3.7 °C 1011.1 hPa ENE 11.6 km/h 14.8 km/h 97 % 1.02 mm
08:29 4.2 °C 3.7 °C 1011.1 hPa East 9.3 km/h 16.7 km/h 97 % 1.02 mm
08:34 4.2 °C 3.7 °C 1010.7 hPa ENE 11.4 km/h 14.8 km/h 97 % 0.76 mm
08:39 4.2 °C 3.7 °C 1010.7 hPa ENE 12.1 km/h 14.8 km/h 97 % 0.76 mm
08:44 4.1 °C 3.6 °C 1011.1 hPa ENE 10.5 km/h 16.7 km/h 97 % 0.76 mm
08:49 4.1 °C 3.6 °C 1011.1 hPa ENE 9.7 km/h 14.8 km/h 97 % 0.76 mm
08:55 4.1 °C 3.6 °C 1010.7 hPa ENE 13.5 km/h 17.7 km/h 97 % 0.51 mm
09:00 4.1 °C 3.8 °C 1010.7 hPa ENE 15.1 km/h 19.3 km/h 98 % 0.51 mm
09:05 4 °C 3.7 °C 1010.7 hPa ENE 14 km/h 22.2 km/h 98 % 0.51 mm
09:10 3.9 °C 3.5 °C 1010.4 hPa ENE 15.9 km/h 22.2 km/h 97 % 0.51 mm
09:15 3.9 °C 3.4 °C 1010.4 hPa ENE 12.7 km/h 16.7 km/h 97 % 0.76 mm
09:20 3.8 °C 3.4 °C 1010 hPa ENE 14.2 km/h 20.4 km/h 97 % 0.76 mm
09:25 3.8 °C 3.4 °C 1009.7 hPa NE 14.8 km/h 24.1 km/h 97 % 0.51 mm
09:30 3.8 °C 3.4 °C 1009.4 hPa ENE 16.6 km/h 20.4 km/h 97 % 0.51 mm
09:35 3.8 °C 3.6 °C 1009.7 hPa East 16.7 km/h 25.9 km/h 98 % 0.51 mm
09:40 3.8 °C 3.6 °C 1009.7 hPa ENE 14.3 km/h 18.5 km/h 98 % 0.25 mm
09:45 3.8 °C 3.6 °C 1009 hPa East 16.4 km/h 22.2 km/h 98 % 0.51 mm
09:50 3.8 °C 3.6 °C 1008.7 hPa East 16.1 km/h 24.1 km/h 98 % 0.51 mm
09:55 3.8 °C 3.6 °C 1008.4 hPa ENE 16.7 km/h 22.5 km/h 98 % 0.76 mm
10:00 3.9 °C 3.6 °C 1008.4 hPa East 15.6 km/h 24.1 km/h 98 % 0.76 mm
10:05 3.9 °C 3.6 °C 1008.4 hPa East 16.1 km/h 18.5 km/h 98 % 0.76 mm
10:10 3.9 °C 3.6 °C 1008.4 hPa ENE 15.8 km/h 18.5 km/h 98 % 1.02 mm
10:15 3.9 °C 3.7 °C 1008.4 hPa ENE 13.8 km/h 18.5 km/h 98 % 0.76 mm
10:20 3.9 °C 3.7 °C 1008 hPa ENE 15.3 km/h 16.7 km/h 98 % 1.02 mm
10:26 3.9 °C 3.7 °C 1008.4 hPa East 12.9 km/h 20.9 km/h 98 % 0 mm
10:31 3.9 °C 3.7 °C 1008 hPa ENE 12.9 km/h 20.9 km/h 98 % 0 mm
10:35 3.9 °C 3.7 °C 1008 hPa ENE 12.9 km/h 19.3 km/h 98 % 0.25 mm
10:40 4 °C 3.7 °C 1008 hPa East 11.4 km/h 13 km/h 98 % 2.29 mm
10:46 4 °C 3.7 °C 1008 hPa ENE 14.5 km/h 22.5 km/h 98 % 0.25 mm
10:50 4 °C 3.7 °C 1008 hPa ENE 12.9 km/h 19.3 km/h 98 % 0 mm
10:55 3.9 °C 3.7 °C 1007.7 hPa ENE 12.9 km/h 20.9 km/h 98 % 0 mm
11:01 3.9 °C 3.7 °C 1008 hPa East 13 km/h 19.3 km/h 98 % 2.29 mm
11:06 3.9 °C 3.6 °C 1007.7 hPa ENE 14.3 km/h 18.5 km/h 98 % 2.29 mm
11:11 3.9 °C 3.6 °C 1007.7 hPa NE 15.8 km/h 22.2 km/h 98 % 2.29 mm
11:16 3.9 °C 3.6 °C 1007.7 hPa ENE 13.2 km/h 18.5 km/h 98 % 2.29 mm
11:21 3.9 °C 3.6 °C 1007.3 hPa NE 14.3 km/h 24.1 km/h 98 % 2.29 mm
11:26 3.9 °C 3.7 °C 1007.3 hPa ENE 14.5 km/h 20.9 km/h 98 % 2.03 mm
11:31 3.9 °C 3.7 °C 1007 hPa ENE 14.2 km/h 22.2 km/h 98 % 2.03 mm
11:36 3.9 °C 3.7 °C 1007.3 hPa ENE 14.2 km/h 20.4 km/h 98 % 1.52 mm
11:41 3.9 °C 3.7 °C 1007.7 hPa ENE 12.9 km/h 18.5 km/h 98 % 1.52 mm
11:46 3.9 °C 3.7 °C 1007.3 hPa ENE 7.9 km/h 13 km/h 98 % 1.27 mm
11:51 3.9 °C 3.6 °C 1007.7 hPa NE 7.1 km/h 11.3 km/h 98 % 1.27 mm
11:56 3.9 °C 3.7 °C 1008 hPa NNW 13.2 km/h 25.9 km/h 98 % 1.27 mm
12:01 3.9 °C 3.7 °C 1007.3 hPa North 10 km/h 18.5 km/h 98 % 1.27 mm
12:06 3.9 °C 3.7 °C 1007.3 hPa NE 8.5 km/h 13 km/h 98 % 1.27 mm
12:11 3.9 °C 3.7 °C 1007 hPa ENE 11.7 km/h 20.4 km/h 98 % 1.27 mm
12:16 3.9 °C 3.7 °C 1006.7 hPa NE 14.3 km/h 20.4 km/h 98 % 1.27 mm
12:21 3.8 °C 3.6 °C 1006.3 hPa ENE 11.9 km/h 20.4 km/h 98 % 1.02 mm
12:26 3.9 °C 3.6 °C 1006.3 hPa NE 14.6 km/h 24.1 km/h 98 % 1.02 mm
12:31 3.8 °C 3.6 °C 1005.6 hPa East 17.4 km/h 31.5 km/h 98 % 0.76 mm
12:36 3.8 °C 3.6 °C 1005.3 hPa ENE 15.4 km/h 27.8 km/h 98 % 1.02 mm
12:41 3.8 °C 3.6 °C 1005.3 hPa NE 20.1 km/h 27.8 km/h 98 % 0.76 mm
12:46 3.8 °C 3.6 °C 1005 hPa ENE 17.2 km/h 24.1 km/h 98 % 0.76 mm
12:52 3.9 °C 3.6 °C 1005 hPa ENE 15 km/h 24.1 km/h 98 % 0.76 mm
12:57 3.9 °C 3.6 °C 1004.6 hPa ENE 17.5 km/h 22.2 km/h 98 % 0.51 mm
13:02 3.9 °C 3.7 °C 1004.3 hPa East 17.5 km/h 22.2 km/h 98 % 0.51 mm
13:07 4 °C 3.7 °C 1004.3 hPa ENE 14.2 km/h 25.9 km/h 98 % 0.25 mm
13:12 4.1 °C 3.8 °C 1004.3 hPa East 14 km/h 18.5 km/h 98 % 0.25 mm
13:17 4.1 °C 3.8 °C 1004.6 hPa ENE 12.1 km/h 14.8 km/h 98 % 0.25 mm
13:22 4.1 °C 3.8 °C 1005 hPa ENE 13.4 km/h 20.4 km/h 98 % 0.25 mm
13:27 4 °C 3.7 °C 1004.6 hPa ENE 14.6 km/h 24.1 km/h 98 % 0.25 mm
13:32 4 °C 3.7 °C 1005 hPa ENE 10.1 km/h 18.5 km/h 98 % 0.51 mm
13:37 4 °C 3.7 °C 1005 hPa East 15.4 km/h 20.9 km/h 98 % 0.25 mm
13:42 4 °C 3.7 °C 1005 hPa NE 12.7 km/h 18.5 km/h 98 % 0.25 mm
13:47 4 °C 3.7 °C 1005 hPa ENE 11.1 km/h 16.7 km/h 98 % 0.25 mm
13:52 4 °C 3.7 °C 1005 hPa NE 9.5 km/h 18.5 km/h 98 % 0.25 mm
13:57 4.1 °C 3.8 °C 1005.3 hPa NNE 8.5 km/h 13 km/h 98 % 0.25 mm
14:02 4.1 °C 3.8 °C 1005.3 hPa ENE 5.3 km/h 11.3 km/h 98 % 0.25 mm
14:07 4.1 °C 3.8 °C 1004.6 hPa East 14.5 km/h 18.5 km/h 98 % 0.25 mm
14:12 4 °C 3.7 °C 1004.6 hPa ENE 14.8 km/h 20.4 km/h 98 % 0.25 mm
14:18 4 °C 3.7 °C 1005.6 hPa NNE 8.5 km/h 14.5 km/h 98 % 0.25 mm
14:23 4.1 °C 3.8 °C 1007 hPa NNE 12.6 km/h 20.4 km/h 98 % 0.25 mm
14:28 4 °C 3.7 °C 1006.7 hPa NE 9.8 km/h 20.4 km/h 98 % 0.25 mm
14:33 4.1 °C 3.8 °C 1006.3 hPa North 10.1 km/h 18.5 km/h 98 % 0 mm
14:38 4.1 °C 3.8 °C 1006.3 hPa NE 8.7 km/h 13 km/h 98 % 0 mm
14:43 4.1 °C 3.8 °C 1005.6 hPa NNE 6.9 km/h 11.3 km/h 98 % 0 mm
14:48 4.1 °C 3.8 °C 1005 hPa ENE 16.1 km/h 27.8 km/h 98 % 0 mm
14:53 4.1 °C 3.8 °C 1005.6 hPa NE 13.2 km/h 20.4 km/h 98 % 0 mm
14:58 4 °C 3.7 °C 1006 hPa NE 15 km/h 20.4 km/h 98 % 0 mm
15:03 4.1 °C 3.8 °C 1006.3 hPa ENE 15.8 km/h 22.5 km/h 98 % 0 mm
15:08 4.1 °C 3.8 °C 1005.3 hPa ENE 18 km/h 27.8 km/h 98 % 0 mm
15:13 4.1 °C 3.8 °C 1005 hPa ENE 16.9 km/h 22.2 km/h 98 % 0 mm
15:18 4.2 °C 3.9 °C 1005 hPa East 14.3 km/h 22.2 km/h 98 % 0 mm
15:23 4.3 °C 4 °C 1005 hPa ENE 17.1 km/h 20.4 km/h 98 % 0 mm
15:28 4.3 °C 4 °C 1005 hPa East 16.3 km/h 24.1 km/h 98 % 0 mm
15:33 4.3 °C 4.1 °C 1005.3 hPa ENE 12.9 km/h 16.7 km/h 98 % 0 mm
15:38 4.4 °C 4.2 °C 1005.6 hPa ENE 16.3 km/h 20.4 km/h 98 % 0 mm
15:44 4.4 °C 4.2 °C 1005.3 hPa ENE 12.6 km/h 18.5 km/h 98 % 0 mm
15:49 4.6 °C 4.3 °C 1005.3 hPa East 12.9 km/h 16.7 km/h 98 % 0 mm
15:54 4.6 °C 4.3 °C 1005.6 hPa East 11.6 km/h 14.8 km/h 98 % 0 mm
15:59 4.7 °C 4.4 °C 1006 hPa East 9 km/h 11.3 km/h 98 % 0 mm
16:04 4.8 °C 4.5 °C 1006.3 hPa NE 6.8 km/h 11.1 km/h 98 % 0 mm
16:09 4.8 °C 4.5 °C 1006.3 hPa ENE 4.5 km/h 7.4 km/h 98 % 0 mm
16:14 4.8 °C 4.5 °C 1006.7 hPa ENE 5 km/h 7.4 km/h 98 % 0 mm
16:19 4.8 °C 4.5 °C 1006 hPa East 5.3 km/h 9.3 km/h 98 % 0 mm
16:24 4.8 °C 4.5 °C 1006 hPa NE 3.4 km/h 5.6 km/h 98 % 0 mm
16:29 4.8 °C 4.5 °C 1005.3 hPa East 13.2 km/h 14.8 km/h 98 % 0 mm
16:34 4.8 °C 4.5 °C 1005 hPa East 4.5 km/h 9.3 km/h 98 % 0 mm
16:39 4.8 °C 4.6 °C 1005.3 hPa NE 0.2 km/h 5.6 km/h 98 % 0 mm
16:44 4.9 °C 4.6 °C 1006 hPa NNE 4.2 km/h 5.6 km/h 98 % 0 mm
16:49 4.9 °C 4.7 °C 1006.3 hPa NNE 1.9 km/h 3.2 km/h 98 % 0 mm
16:54 4.9 °C 4.7 °C 1006.3 hPa NNE 2.3 km/h 3.2 km/h 98 % 0 mm
16:59 5 °C 4.7 °C 1006.3 hPa Calm   1.9 km/h 98 % 0 mm
17:04 5 °C 4.7 °C 1006 hPa Calm     98 % 0 mm
17:09 5.1 °C 4.8 °C 1006 hPa Calm     98 % 0 mm
17:15 5.1 °C 4.8 °C 1006.3 hPa Calm     98 % 0 mm
17:20 5.1 °C 4.8 °C 1006.7 hPa Calm     98 % 0 mm
17:25 5.1 °C 4.8 °C 1006.3 hPa Calm     98 % 0 mm
17:30 5.1 °C 4.8 °C 1006.3 hPa Calm     98 % 0 mm
17:35 5.1 °C 4.8 °C 1006 hPa Calm     98 % 0 mm
17:40 5.1 °C 4.8 °C 1006 hPa Calm     98 % 0 mm
17:45 5.2 °C 4.9 °C 1005.6 hPa Calm     98 % 0 mm
17:50 5.2 °C 4.9 °C 1005.3 hPa Calm     98 % 0 mm
17:55 5.2 °C 4.9 °C 1005.6 hPa Calm     98 % 0 mm
18:00 5.2 °C 4.9 °C 1006 hPa Calm     98 % 0 mm
18:05 5.2 °C 4.9 °C 1006 hPa NNE 0.6 km/h 1.9 km/h 98 % 0 mm
18:10 5.2 °C 4.9 °C 1006 hPa Calm     98 % 0 mm
18:15 5.3 °C 5 °C 1006 hPa Calm   1.9 km/h 98 % 0 mm
18:20 5.3 °C 5 °C 1005.6 hPa Calm     98 % 0 mm
18:25 5.3 °C 5.1 °C 1006 hPa Calm     98 % 0 mm
18:30 5.3 °C 5.1 °C 1006 hPa Calm     98 % 0 mm
18:36 5.4 °C 5.1 °C 1006 hPa Calm     98 % 0 mm
18:41 5.4 °C 5.1 °C 1006.3 hPa Calm     98 % 0 mm
18:46 5.4 °C 5.1 °C 1006.3 hPa Calm     98 % 0 mm
18:51 5.4 °C 5.2 °C 1006.3 hPa Calm     98 % 0 mm
18:56 5.4 °C 5.2 °C 1006.3 hPa Calm     98 % 0 mm
19:01 5.4 °C 5.2 °C 1006.3 hPa Calm     98 % 0 mm
19:06 5.4 °C 5.2 °C 1006.3 hPa NNE 0.3 km/h 1.9 km/h 98 % 0 mm
19:11 5.4 °C 5.1 °C 1006.7 hPa NNE 0.2 km/h 1.9 km/h 98 % 0 mm
19:16 5.4 °C 5.2 °C 1006.7 hPa NNW 1.6 km/h 5.6 km/h 98 % 0 mm
19:21 5.4 °C 5.1 °C 1006.7 hPa Calm     98 % 0 mm
19:26 5.4 °C 5.1 °C 1006.7 hPa NNW 0.3 km/h 1.9 km/h 98 % 0 mm
19:31 5.4 °C 5.1 °C 1007 hPa NNW 1 km/h 3.7 km/h 98 % 0 mm
19:36 5.4 °C 5.1 °C 1007 hPa NNW 1.4 km/h 3.7 km/h 98 % 0 mm
19:41 5.3 °C 5.1 °C 1007 hPa NNW 0.8 km/h 3.2 km/h 98 % 0 mm
19:46 5.3 °C 5.1 °C 1007.3 hPa NNW 1.1 km/h 5.6 km/h 98 % 0 mm
19:51 5.3 °C 5.1 °C 1007.3 hPa Calm     98 % 0 mm
19:56 5.3 °C 5.1 °C 1007.3 hPa Calm     98 % 0 mm
20:01 5.3 °C 5.1 °C 1007.7 hPa NNW 0.2 km/h 1.9 km/h 98 % 0 mm
20:06 5.3 °C 5.1 °C 1007.7 hPa Calm   1.9 km/h 98 % 0 mm
20:11 5.3 °C 5.1 °C 1007.3 hPa Calm     98 % 0 mm
20:16 5.3 °C 5.1 °C 1007 hPa Calm     98 % 0 mm
20:21 5.3 °C 5 °C 1006.7 hPa Calm     98 % 0 mm
20:26 5.3 °C 5.1 °C 1007 hPa Calm     98 % 0 mm
20:31 5.3 °C 5.1 °C 1007 hPa Calm     98 % 0 mm
20:37 5.3 °C 5.1 °C 1007 hPa Calm     98 % 0 mm
20:42 5.3 °C 5.1 °C 1007 hPa Calm     98 % 0 mm
20:47 5.3 °C 5.1 °C 1007.3 hPa Calm     98 % 0 mm
20:52 5.4 °C 5.1 °C 1007 hPa Calm   1.9 km/h 98 % 0 mm
20:57 5.4 °C 5.1 °C 1007.3 hPa NNW 0.5 km/h 1.9 km/h 98 % 0 mm
21:02 5.4 °C 5.1 °C 1007.3 hPa Calm   1.9 km/h 98 % 0 mm
21:07 5.4 °C 5.2 °C 1007.3 hPa NNW 2.3 km/h 7.4 km/h 98 % 0 mm
21:12 5.4 °C 5.2 °C 1007.3 hPa Calm     98 % 0 mm
21:17 5.4 °C 5.2 °C 1008 hPa NNW 1.6 km/h 3.7 km/h 98 % 0 mm
21:22 5.4 °C 5.2 °C 1008 hPa Calm   1.6 km/h 98 % 0 mm
21:27 5.5 °C 5.2 °C 1008 hPa Calm   1.9 km/h 98 % 0 mm
21:32 5.5 °C 5.2 °C 1007.7 hPa Calm     98 % 0 mm
21:37 5.5 °C 5.2 °C 1008 hPa NNW 1.4 km/h 5.6 km/h 98 % 0 mm
21:42 5.5 °C 5.2 °C 1007.7 hPa Calm     98 % 0 mm
21:47 5.5 °C 5.2 °C 1007.7 hPa Calm     98 % 0 mm
21:52 5.5 °C 5.2 °C 1007.7 hPa Calm     98 % 0 mm
21:57 5.5 °C 5.2 °C 1008 hPa Calm     98 % 0 mm
22:02 5.6 °C 5.3 °C 1007.7 hPa Calm     98 % 0 mm
22:07 5.6 °C 5.3 °C 1008 hPa NNW 1.3 km/h 1.6 km/h 98 % 0 mm
22:12 5.6 °C 5.3 °C 1007.7 hPa Calm     98 % 0 mm
22:17 5.6 °C 5.3 °C 1008 hPa Calm     98 % 0 mm
22:22 5.6 °C 5.3 °C 1008 hPa Calm     98 % 0 mm
22:28 5.6 °C 5.3 °C 1008 hPa Calm     98 % 0 mm
22:33 5.6 °C 5.3 °C 1007.7 hPa Calm     98 % 0 mm
22:38 5.6 °C 5.3 °C 1007.7 hPa Calm     98 % 0 mm
22:43 5.6 °C 5.3 °C 1007.7 hPa Calm     98 % 0 mm
22:48 5.6 °C 5.3 °C 1008 hPa Calm     98 % 0 mm
22:53 5.6 °C 5.3 °C 1007.7 hPa Calm     98 % 0 mm
22:58 5.6 °C 5.3 °C 1008 hPa Calm     98 % 0 mm
23:03 5.6 °C 5.3 °C 1007.7 hPa Calm   1.9 km/h 98 % 0 mm
23:08 5.6 °C 5.3 °C 1007.3 hPa Calm     98 % 0 mm
23:13 5.7 °C 5.4 °C 1007.3 hPa Calm     98 % 0 mm
23:18 5.7 °C 5.4 °C 1007.7 hPa Calm     98 % 0 mm
23:23 5.7 °C 5.4 °C 1007.7 hPa Calm     98 % 0 mm
23:28 5.7 °C 5.4 °C 1007.7 hPa NNW 1.1 km/h 3.7 km/h 98 % 0 mm
23:33 5.7 °C 5.4 °C 1007.7 hPa Calm   3.7 km/h 98 % 0 mm
23:38 5.7 °C 5.4 °C 1007.7 hPa Calm     98 % 0 mm
23:43 5.7 °C 5.4 °C 1007.7 hPa Calm     98 % 0 mm
23:48 5.7 °C 5.4 °C 1007.7 hPa West 2.1 km/h 2.1 km/h 98 % 0 mm
23:54 5.8 °C 5.5 °C 1008 hPa West 1.6 km/h 5.6 km/h 98 % 0 mm
23:59 5.8 °C 5.5 °C 1007.7 hPa WNW 0.2 km/h 3.7 km/h 98 % 0 mm
Crab Meadow Weather
Compliments of Weather Underground - 3 mb

Script developed by  Jim McMurry - jmcmurry@mwt.net Adapted for the template by  Wim van der Kuil - Leuven-Template.eu

Astronomy: February 1865 is the only month recorded in history not to have a full moon.